createdAt,value
2023-03-27T00:02:12.465Z,12.50
2023-03-27T00:04:46.232Z,11.40
2023-03-27T00:07:20.324Z,11.20
2023-03-27T00:09:54.269Z,11.60
2023-03-27T00:12:28.428Z,11.70
2023-03-27T00:15:02.131Z,11.30
2023-03-27T00:17:35.867Z,11.80
2023-03-27T00:20:11.051Z,10.70
2023-03-27T00:22:44.623Z,12.30
2023-03-27T00:25:18.689Z,11.70
2023-03-27T00:27:52.359Z,11.30
2023-03-27T00:30:26.685Z,12.20
2023-03-27T00:33:01.182Z,10.50
2023-03-27T00:35:35.253Z,11.90
2023-03-27T00:38:10.299Z,12.10
2023-03-27T00:40:45.008Z,12.40
2023-03-27T00:43:27.946Z,11.60
2023-03-27T00:46:06.966Z,11.90
2023-03-27T00:48:41.616Z,11.80
2023-03-27T00:51:16.243Z,13.00
2023-03-27T00:53:51.132Z,11.20
2023-03-27T00:56:26.523Z,11.70
2023-03-27T00:59:04.286Z,12.00
2023-03-27T01:01:37.908Z,11.70
2023-03-27T01:04:12.361Z,12.70
2023-03-27T01:06:46.158Z,11.30
2023-03-27T01:09:21.406Z,11.80
2023-03-27T01:12:12.928Z,12.70
2023-03-27T01:14:58.555Z,11.80
2023-03-27T01:17:45.685Z,11.30
2023-03-27T01:21:04.204Z,12.10
2023-03-27T01:23:59.502Z,12.00
2023-03-27T01:27:10.975Z,13.90
2023-03-27T01:29:59.941Z,13.40
2023-03-27T01:33:16.650Z,12.50
2023-03-27T01:36:10.913Z,12.20
2023-03-27T01:39:06.924Z,12.90
2023-03-27T01:41:49.655Z,13.00
2023-03-27T01:44:36.404Z,13.10
2023-03-27T01:47:34.645Z,12.60
2023-03-27T01:50:16.651Z,13.00
2023-03-27T01:52:55.700Z,13.90
2023-03-27T01:55:35.087Z,12.80
2023-03-27T01:58:14.338Z,13.10
2023-03-27T02:00:56.171Z,12.40
2023-03-27T02:03:35.465Z,13.10
2023-03-27T02:06:16.373Z,12.20
2023-03-27T02:08:56.948Z,12.60
2023-03-27T02:11:36.213Z,12.60
2023-03-27T02:14:14.012Z,13.10
2023-03-27T02:16:50.762Z,13.20
2023-03-27T02:19:30.501Z,12.80
2023-03-27T02:22:04.295Z,11.60
2023-03-27T02:24:49.329Z,13.20
2023-03-27T02:27:33.185Z,12.70
2023-03-27T02:30:16.534Z,12.00
2023-03-27T02:32:58.992Z,11.80
2023-03-27T02:35:45.796Z,12.50
2023-03-27T02:38:23.988Z,12.30
2023-03-27T02:41:07.543Z,12.80
2023-03-27T02:44:18.167Z,11.70
2023-03-27T02:47:07.104Z,11.80
2023-03-27T02:49:44.313Z,11.90
2023-03-27T02:52:22.252Z,12.70
2023-03-27T02:55:06.585Z,13.20
2023-03-27T02:57:51.938Z,13.90
2023-03-27T03:00:41.613Z,14.10
2023-03-27T03:03:28.182Z,13.80
2023-03-27T03:06:11.505Z,12.80
2023-03-27T03:08:46.965Z,14.20
2023-03-27T03:11:20.846Z,15.40
2023-03-27T03:13:54.279Z,15.00
2023-03-27T03:16:28.610Z,16.30
2023-03-27T03:19:02.309Z,18.60
2023-03-27T03:21:36.609Z,16.50
2023-03-27T03:24:10.911Z,15.90
2023-03-27T03:26:45.370Z,15.40
2023-03-27T03:29:19.829Z,14.10
2023-03-27T03:32:10.752Z,14.10
2023-03-27T03:34:46.906Z,13.10
2023-03-27T03:37:21.765Z,14.40
2023-03-27T03:39:55.245Z,13.10
2023-03-27T03:42:28.944Z,12.10
2023-03-27T03:45:02.850Z,12.80
2023-03-27T03:47:36.830Z,12.70
2023-03-27T03:50:12.238Z,12.90
2023-03-27T03:52:47.511Z,14.10
2023-03-27T03:55:21.265Z,13.30
2023-03-27T03:57:54.842Z,14.20
2023-03-27T04:00:34.841Z,14.40
2023-03-27T04:03:10.162Z,13.10
2023-03-27T04:05:44.353Z,11.90
2023-03-27T04:08:17.925Z,13.90
2023-03-27T04:10:57.746Z,13.00
2023-03-27T04:13:50.911Z,14.60
2023-03-27T04:16:38.438Z,14.30
2023-03-27T04:19:25.015Z,14.00
2023-03-27T04:22:05.409Z,14.10
2023-03-27T04:24:45.307Z,13.80
2023-03-27T04:27:21.551Z,14.80
2023-03-27T04:30:10.508Z,15.90
2023-03-27T04:33:19.095Z,13.60
2023-03-27T04:36:15.085Z,13.60
2023-03-27T04:38:59.160Z,14.60
2023-03-27T04:41:33.155Z,13.70
2023-03-27T04:44:07.421Z,14.70
2023-03-27T04:46:42.313Z,13.10
2023-03-27T04:49:19.384Z,13.50
2023-03-27T04:52:03.719Z,13.20
2023-03-27T04:54:37.351Z,14.10
2023-03-27T04:57:11.563Z,12.90
2023-03-27T04:59:45.620Z,15.40
2023-03-27T05:02:38.302Z,15.00
2023-03-27T05:05:21.335Z,13.70
2023-03-27T05:07:55.385Z,13.10
2023-03-27T05:10:30.902Z,12.60
2023-03-27T05:13:06.034Z,13.60
2023-03-27T05:15:39.645Z,13.10
2023-03-27T05:18:14.259Z,13.50
2023-03-27T05:20:50.280Z,13.70
2023-03-27T05:23:24.092Z,13.10
2023-03-27T05:25:59.881Z,13.00
2023-03-27T05:28:45.000Z,12.80
2023-03-27T05:31:19.489Z,12.60
2023-03-27T05:34:03.049Z,12.70
2023-03-27T05:36:39.533Z,13.00
2023-03-27T05:39:13.482Z,13.20
2023-03-27T05:41:49.278Z,13.20
2023-03-27T05:44:29.091Z,12.20
2023-03-27T05:47:03.271Z,12.80
2023-03-27T05:49:38.005Z,12.60
2023-03-27T05:54:48.531Z,11.80
2023-03-27T05:57:22.519Z,11.60
2023-03-27T05:59:57.347Z,11.80
2023-03-27T06:02:31.835Z,11.20
2023-03-27T06:05:13.697Z,11.60
2023-03-27T06:10:22.626Z,10.70
2023-03-27T06:13:24.452Z,10.00
2023-03-27T06:16:02.689Z,10.40
2023-03-27T06:19:00.132Z,8.50
2023-03-27T06:21:34.075Z,9.30
2023-03-27T06:24:09.750Z,9.50
2023-03-27T06:26:43.256Z,9.40
2023-03-27T06:29:17.119Z,9.60
2023-03-27T06:31:54.013Z,8.70
2023-03-27T06:34:35.397Z,7.70
2023-03-27T06:37:29.001Z,8.40
2023-03-27T06:40:04.147Z,7.30
2023-03-27T06:42:40.000Z,6.60
2023-03-27T06:45:33.926Z,6.50
2023-03-27T06:48:31.338Z,6.90
2023-03-27T06:51:09.284Z,7.70
2023-03-27T06:53:43.401Z,6.50
2023-03-27T06:56:17.122Z,7.30
2023-03-27T06:59:17.036Z,7.00
2023-03-27T07:01:52.961Z,8.10
2023-03-27T07:04:39.827Z,7.20
2023-03-27T07:07:27.541Z,6.10
2023-03-27T07:10:01.063Z,5.80
2023-03-27T07:12:37.567Z,5.60
2023-03-27T07:15:12.990Z,4.80
2023-03-27T07:17:54.146Z,5.20
2023-03-27T07:20:29.579Z,5.30
2023-03-27T07:23:05.900Z,4.50
2023-03-27T07:26:03.297Z,4.30
2023-03-27T07:29:11.337Z,5.10
2023-03-27T07:31:57.035Z,5.50
2023-03-27T07:34:59.475Z,6.70
2023-03-27T07:38:03.641Z,5.20
2023-03-27T07:40:44.406Z,5.90
2023-03-27T07:43:53.469Z,5.40
2023-03-27T07:46:28.396Z,5.10
2023-03-27T07:49:05.535Z,4.50
2023-03-27T07:51:40.480Z,3.60
2023-03-27T07:54:15.832Z,4.20
2023-03-27T07:56:54.550Z,3.70
2023-03-27T07:59:41.676Z,3.90
2023-03-27T08:02:21.053Z,3.70
2023-03-27T08:04:55.554Z,3.70
2023-03-27T08:07:30.650Z,3.90
2023-03-27T08:10:08.985Z,4.20
2023-03-27T08:12:53.402Z,3.40
2023-03-27T08:15:27.018Z,4.10
2023-03-27T08:18:02.343Z,3.50
2023-03-27T08:20:37.887Z,3.50
2023-03-27T08:23:11.813Z,3.50
2023-03-27T08:26:06.446Z,3.50
2023-03-27T08:28:46.087Z,3.70
2023-03-27T08:31:19.996Z,3.00
2023-03-27T08:33:53.944Z,3.80
2023-03-27T08:39:08.636Z,3.40
2023-03-27T08:41:55.379Z,3.60
2023-03-27T08:44:40.131Z,3.20
2023-03-27T08:47:28.666Z,3.00
2023-03-27T08:50:22.997Z,3.10
2023-03-27T08:53:00.014Z,2.60
2023-03-27T08:55:43.289Z,2.80
2023-03-27T08:58:33.356Z,3.00
2023-03-27T09:01:32.125Z,2.80
2023-03-27T09:04:19.499Z,2.80
2023-03-27T09:07:02.848Z,3.10
2023-03-27T09:09:53.425Z,2.70
2023-03-27T09:12:45.458Z,2.40
2023-03-27T09:15:26.436Z,2.90
2023-03-27T09:18:04.654Z,2.50
2023-03-27T09:20:45.235Z,2.80
2023-03-27T09:23:24.245Z,2.60
2023-03-27T09:26:20.465Z,2.50
2023-03-27T09:29:21.033Z,3.00
2023-03-27T09:32:00.651Z,2.90
2023-03-27T09:34:35.648Z,3.10
2023-03-27T09:37:15.051Z,2.70
2023-03-27T09:39:55.046Z,2.90
2023-03-27T09:42:39.045Z,2.90
2023-03-27T09:45:14.792Z,2.50
2023-03-27T09:48:04.657Z,2.70
2023-03-27T09:50:49.586Z,3.10
2023-03-27T09:53:33.622Z,2.40
2023-03-27T09:56:17.889Z,2.80
2023-03-27T09:58:56.389Z,2.80
2023-03-27T10:01:35.517Z,2.20
2023-03-27T10:04:19.926Z,2.70
2023-03-27T10:07:05.770Z,3.00
2023-03-27T10:10:14.418Z,2.70
2023-03-27T10:13:18.389Z,2.10
2023-03-27T10:16:02.701Z,2.60
2023-03-27T10:18:46.669Z,2.50
2023-03-27T10:21:33.628Z,2.10
2023-03-27T10:24:21.159Z,2.50
2023-03-27T10:27:25.234Z,2.40
2023-03-27T10:30:33.747Z,2.60
2023-03-27T10:33:38.100Z,2.40
2023-03-27T10:36:38.333Z,2.30
2023-03-27T10:39:17.804Z,2.50
2023-03-27T10:42:19.757Z,2.40
2023-03-27T10:44:57.916Z,2.00
2023-03-27T10:47:35.879Z,2.20
2023-03-27T10:50:20.374Z,2.30
2023-03-27T10:53:04.267Z,2.30
2023-03-27T10:55:56.477Z,2.10
2023-03-27T10:58:36.072Z,2.30
2023-03-27T11:01:18.798Z,3.50
2023-03-27T11:04:01.155Z,2.50
2023-03-27T11:06:42.259Z,2.50
2023-03-27T11:09:27.381Z,3.00
2023-03-27T11:12:14.859Z,3.00
2023-03-27T11:15:13.032Z,2.60
2023-03-27T11:17:51.691Z,2.50
2023-03-27T11:20:51.056Z,2.80
2023-03-27T11:23:54.801Z,2.10
2023-03-27T11:27:02.275Z,2.70
2023-03-27T11:29:42.096Z,2.70
2023-03-27T11:32:23.085Z,2.70
2023-03-27T11:35:08.610Z,2.90
2023-03-27T11:37:54.060Z,2.70
2023-03-27T11:40:32.395Z,2.60
2023-03-27T11:43:11.243Z,2.90
2023-03-27T11:45:54.628Z,2.80
2023-03-27T11:49:00.253Z,2.90
2023-03-27T11:51:46.313Z,2.60
2023-03-27T11:54:34.903Z,2.70
2023-03-27T11:57:23.479Z,2.60
2023-03-27T12:00:19.348Z,2.90
2023-03-27T12:03:22.557Z,2.90
2023-03-27T12:06:20.254Z,2.70
2023-03-27T12:09:19.207Z,3.00
2023-03-27T12:12:51.226Z,2.80
2023-03-27T12:16:04.674Z,2.90
2023-03-27T12:19:10.822Z,2.70
2023-03-27T12:22:07.212Z,2.80
2023-03-27T12:25:06.536Z,2.70
2023-03-27T12:28:23.146Z,2.90
2023-03-27T12:31:51.944Z,2.50
2023-03-27T12:34:50.653Z,2.60
2023-03-27T12:37:30.351Z,2.60
2023-03-27T12:40:15.156Z,3.10
2023-03-27T12:42:55.972Z,2.40
2023-03-27T12:45:30.024Z,2.10
2023-03-27T12:48:21.626Z,2.50
2023-03-27T12:51:01.071Z,2.50
2023-03-27T12:54:13.449Z,2.40
2023-03-27T12:56:53.726Z,2.70
2023-03-27T12:59:33.707Z,2.40
2023-03-27T13:02:39.902Z,2.10
2023-03-27T13:05:49.381Z,2.10
2023-03-27T13:09:02.719Z,2.20
2023-03-27T13:12:09.841Z,1.90
2023-03-27T13:15:12.634Z,2.40
2023-03-27T13:17:57.533Z,2.40
2023-03-27T13:20:41.290Z,2.00
2023-03-27T13:23:29.206Z,2.30
2023-03-27T13:26:22.029Z,2.50
2023-03-27T13:28:57.675Z,2.10
2023-03-27T13:32:28.788Z,2.40
2023-03-27T13:35:41.675Z,2.30
2023-03-27T13:38:15.684Z,3.00
2023-03-27T13:41:35.525Z,2.80
2023-03-27T13:44:12.761Z,2.80
2023-03-27T13:46:54.561Z,2.70
2023-03-27T13:49:47.391Z,2.60
2023-03-27T13:52:51.662Z,2.90
2023-03-27T13:55:52.400Z,2.70
2023-03-27T13:59:41.772Z,2.00
2023-03-27T14:02:46.049Z,2.60
2023-03-27T14:05:37.647Z,2.50
2023-03-27T14:08:31.756Z,2.50
2023-03-27T14:11:37.338Z,2.30
2023-03-27T14:14:37.440Z,2.40
2023-03-27T14:17:39.593Z,2.50
2023-03-27T14:20:23.524Z,2.10
2023-03-27T14:23:06.010Z,2.40
2023-03-27T14:26:02.241Z,2.40
2023-03-27T14:28:51.938Z,2.20
2023-03-27T14:31:36.108Z,2.10
2023-03-27T14:34:40.575Z,1.80
2023-03-27T14:38:00.506Z,2.00
2023-03-27T14:40:51.008Z,2.20
2023-03-27T14:43:31.016Z,5.90
2023-03-27T14:46:08.626Z,3.00
2023-03-27T14:48:45.493Z,1.80
2023-03-27T14:51:21.783Z,1.40
2023-03-27T14:54:04.667Z,1.30
2023-03-27T14:56:56.510Z,1.30
2023-03-27T14:59:43.233Z,1.20
2023-03-27T15:02:26.959Z,1.20
2023-03-27T15:05:09.951Z,1.40
2023-03-27T15:07:49.705Z,1.30
2023-03-27T15:10:56.364Z,1.50
2023-03-27T15:13:43.922Z,1.70
2023-03-27T15:16:26.443Z,1.70
2023-03-27T15:19:10.423Z,2.10
2023-03-27T15:21:57.820Z,1.40
2023-03-27T15:24:41.046Z,1.40
2023-03-27T15:27:23.847Z,1.70
2023-03-27T15:30:00.349Z,1.30
2023-03-27T15:32:42.739Z,1.50
2023-03-27T15:35:24.146Z,1.40
2023-03-27T15:37:58.498Z,1.80
2023-03-27T15:40:42.451Z,1.80
2023-03-27T15:43:32.795Z,1.40
2023-03-27T15:46:17.246Z,2.20
2023-03-27T15:48:58.026Z,2.30
2023-03-27T15:51:35.694Z,2.10
2023-03-27T15:54:32.226Z,2.40
2023-03-27T15:57:11.823Z,1.70
2023-03-27T15:59:52.211Z,1.90
2023-03-27T16:02:30.118Z,1.70
2023-03-27T16:05:08.246Z,1.50
2023-03-27T16:07:49.156Z,1.90
2023-03-27T16:10:34.933Z,2.10
2023-03-27T16:13:24.338Z,1.90
2023-03-27T16:16:04.212Z,1.70
2023-03-27T16:18:42.913Z,1.70
2023-03-27T16:23:50.032Z,2.30
2023-03-27T16:26:27.227Z,2.20
2023-03-27T16:29:04.022Z,2.00
2023-03-27T16:31:39.005Z,2.00
2023-03-27T16:34:22.423Z,1.50
2023-03-27T16:36:58.827Z,1.90
2023-03-27T16:39:34.049Z,2.50
2023-03-27T16:42:07.994Z,2.40
2023-03-27T16:44:42.937Z,2.40
2023-03-27T16:47:18.782Z,3.00
2023-03-27T16:50:10.241Z,2.10
2023-03-27T16:52:47.322Z,1.90
2023-03-27T16:55:25.239Z,2.00
2023-03-27T16:58:02.242Z,2.40
2023-03-27T17:00:37.514Z,2.30
2023-03-27T17:03:12.601Z,2.40
2023-03-27T17:05:46.903Z,2.50
2023-03-27T17:08:22.593Z,3.60
2023-03-27T17:10:57.642Z,2.60
2023-03-27T17:13:32.825Z,2.80
2023-03-27T17:16:09.784Z,2.80
2023-03-27T17:18:44.026Z,2.50
2023-03-27T17:21:18.504Z,2.70
2023-03-27T17:23:54.132Z,2.20
2023-03-27T17:26:32.594Z,2.60
2023-03-27T17:29:12.215Z,2.90
2023-03-27T17:31:48.193Z,2.30
2023-03-27T17:34:22.611Z,2.70
2023-03-27T17:36:58.022Z,2.90
2023-03-27T17:39:32.944Z,7.60
2023-03-27T17:42:08.794Z,6.60
2023-03-27T17:44:47.210Z,4.00
2023-03-27T17:47:23.518Z,5.20
2023-03-27T17:50:00.990Z,3.80
2023-03-27T17:52:39.379Z,3.40
2023-03-27T17:55:15.841Z,2.70
2023-03-27T17:58:07.860Z,3.20
2023-03-27T18:00:44.610Z,2.50
2023-03-27T18:03:25.282Z,3.00
2023-03-27T18:06:08.068Z,2.50
2023-03-27T18:08:48.274Z,2.30
2023-03-27T18:11:24.776Z,2.50
2023-03-27T18:13:59.194Z,2.60
2023-03-27T18:16:36.049Z,2.50
2023-03-27T18:19:13.288Z,3.90
2023-03-27T18:21:49.187Z,4.90
2023-03-27T18:24:25.803Z,5.20
2023-03-27T18:27:02.686Z,3.50
2023-03-27T18:29:41.441Z,2.20
2023-03-27T18:32:17.257Z,2.70
2023-03-27T18:34:54.336Z,2.50
2023-03-27T18:37:30.417Z,2.30
2023-03-27T18:40:12.268Z,2.20
2023-03-27T18:42:47.985Z,2.00
2023-03-27T18:45:25.514Z,2.60
2023-03-27T18:48:02.779Z,2.90
2023-03-27T18:50:42.625Z,1.90
2023-03-27T18:53:24.148Z,1.70
2023-03-27T18:56:03.443Z,2.30
2023-03-27T18:58:43.469Z,2.10
2023-03-27T19:01:20.992Z,5.70
2023-03-27T19:03:57.060Z,7.50
2023-03-27T19:06:35.903Z,3.80
2023-03-27T19:09:14.327Z,5.10
2023-03-27T19:11:53.296Z,3.60
2023-03-27T19:14:49.430Z,9.00
2023-03-27T19:17:44.347Z,4.30
2023-03-27T19:20:35.138Z,5.40
2023-03-27T19:23:42.918Z,2.80
2023-03-27T19:26:23.376Z,3.30
2023-03-27T19:29:00.601Z,3.00
2023-03-27T19:31:44.982Z,1.80
2023-03-27T19:34:29.896Z,1.70
2023-03-27T19:37:18.419Z,1.60
2023-03-27T19:39:56.309Z,2.60
2023-03-27T19:42:33.902Z,2.30
2023-03-27T19:45:14.919Z,1.40
2023-03-27T19:47:54.218Z,1.70
2023-03-27T19:50:29.648Z,1.50
2023-03-27T19:53:26.591Z,1.60
2023-03-27T19:56:04.244Z,2.20
2023-03-27T19:58:42.753Z,2.00
2023-03-27T20:01:20.906Z,1.90
2023-03-27T20:06:39.329Z,1.80
2023-03-27T20:09:16.304Z,2.50
2023-03-27T20:11:53.435Z,2.20
2023-03-27T20:14:31.501Z,2.10
2023-03-27T20:17:12.150Z,2.40
2023-03-27T20:19:56.155Z,2.20
2023-03-27T20:22:40.689Z,2.10
2023-03-27T20:25:18.762Z,2.70
2023-03-27T20:27:55.144Z,2.50
2023-03-27T20:30:37.071Z,2.90
2023-03-27T20:33:13.866Z,2.20
2023-03-27T20:35:52.183Z,2.00
2023-03-27T20:41:07.116Z,2.50
2023-03-27T20:43:45.239Z,2.50
2023-03-27T20:46:21.861Z,2.70
2023-03-27T20:48:56.615Z,2.30
2023-03-27T20:51:30.561Z,2.60
2023-03-27T20:54:06.356Z,2.60
2023-03-27T20:56:39.886Z,2.40
2023-03-27T20:59:14.903Z,2.70
2023-03-27T21:01:48.778Z,2.50
2023-03-27T21:04:24.751Z,2.80
2023-03-27T21:06:59.159Z,3.00
2023-03-27T21:09:32.776Z,2.80
2023-03-27T21:12:07.163Z,2.70
2023-03-27T21:14:41.087Z,2.80
2023-03-27T21:17:17.562Z,2.90
2023-03-27T21:19:51.486Z,2.80
2023-03-27T21:22:25.028Z,3.00
2023-03-27T21:24:59.133Z,2.90
2023-03-27T21:27:33.475Z,2.80
2023-03-27T21:30:10.079Z,3.20
2023-03-27T21:32:43.715Z,3.20
2023-03-27T21:35:17.363Z,2.80
2023-03-27T21:37:50.905Z,3.20
2023-03-27T21:40:25.264Z,3.20
2023-03-27T21:43:00.062Z,3.70
2023-03-27T21:45:34.242Z,4.20
2023-03-27T21:48:11.107Z,4.00
2023-03-27T21:50:45.588Z,3.30
2023-03-27T21:53:19.755Z,4.00
2023-03-27T21:55:53.193Z,4.20
2023-03-27T21:58:27.072Z,4.40
2023-03-27T22:01:01.316Z,5.10
2023-03-27T22:03:35.280Z,4.60
2023-03-27T22:06:13.378Z,3.70
2023-03-27T22:11:19.523Z,4.50
2023-03-27T22:13:53.511Z,3.80
2023-03-27T22:16:27.726Z,3.80
2023-03-27T22:19:01.768Z,4.00
2023-03-27T22:21:35.476Z,3.40
2023-03-27T22:24:09.939Z,5.20
2023-03-27T22:26:44.168Z,3.50
2023-03-27T22:29:18.036Z,3.40
2023-03-27T22:31:52.213Z,3.90
2023-03-27T22:34:27.006Z,4.00
2023-03-27T22:37:01.911Z,3.80
2023-03-27T22:39:35.958Z,4.40
2023-03-27T22:42:09.981Z,3.70
2023-03-27T22:44:43.968Z,3.70
2023-03-27T22:47:17.434Z,4.20
2023-03-27T22:49:50.918Z,4.50
2023-03-27T22:52:24.819Z,4.50
2023-03-27T22:54:58.400Z,3.80
2023-03-27T22:57:31.962Z,4.10
2023-03-27T23:00:07.191Z,4.40
2023-03-27T23:02:41.627Z,4.30
2023-03-27T23:05:15.944Z,5.30
2023-03-27T23:07:49.353Z,4.30
2023-03-27T23:10:23.224Z,4.70
2023-03-27T23:12:57.087Z,3.90
2023-03-27T23:15:30.650Z,4.70
2023-03-27T23:18:04.971Z,4.30
2023-03-27T23:20:40.974Z,4.80
2023-03-27T23:23:14.798Z,5.60
2023-03-27T23:25:48.264Z,6.10
2023-03-27T23:28:22.103Z,5.10
2023-03-27T23:31:00.516Z,5.20
2023-03-27T23:33:37.882Z,5.50
2023-03-27T23:36:14.462Z,5.00
2023-03-27T23:38:48.263Z,5.20
2023-03-27T23:41:22.687Z,5.00
2023-03-27T23:43:56.417Z,4.50
2023-03-27T23:46:30.056Z,4.80
2023-03-27T23:49:03.635Z,4.10
2023-03-27T23:51:37.134Z,4.10
2023-03-27T23:54:11.083Z,4.30
2023-03-27T23:56:45.321Z,5.00
2023-03-27T23:59:19.278Z,4.80
